Time;durP1;ratioP1;P1;durP2;ratioP2;P2;SDS_P1;SDS_P2;PMS_P1;PMS_P2;Temp;Humidity;BMP_temperature;BMP_pressure;BME280_temperature;BME280_humidity;BME280_pressure;Samples;Min_cycle;Max_cycle;Signal;HPM_P1;HPM_P2
2022/02/27 00:00:59;;;;;;;16.20;8.00;;;;;;;;;;5001294;28;20362;-58
2022/02/27 00:03:24;;;;;;;14.97;8.00;;;;;;;;;;4993196;28;20091;-58
2022/02/27 00:05:50;;;;;;;17.10;7.83;;;;;;;;;;4990307;28;20097;-60
2022/02/27 00:08:15;;;;;;;16.97;7.07;;;;;;;;;;4998620;28;20085;-59
2022/02/27 00:10:40;;;;;;;12.80;4.67;;;;;;;;;;5030582;28;20116;-59
2022/02/27 00:13:05;;;;;;;12.43;7.20;;;;;;;;;;4994420;28;20399;-57
2022/02/27 00:15:31;;;;;;;11.37;6.07;;;;;;;;;;4997738;28;20271;-59
2022/02/27 00:17:56;;;;;;;15.10;6.72;;;;;;;;;;5000108;28;20687;-60
2022/02/27 00:20:21;;;;;;;12.53;5.83;;;;;;;;;;4999647;28;20535;-61
2022/02/27 00:22:46;;;;;;;16.20;7.17;;;;;;;;;;5001073;28;20558;-59
2022/02/27 00:25:11;;;;;;;13.73;5.70;;;;;;;;;;5001340;28;20030;-56
2022/02/27 00:27:37;;;;;;;13.87;6.87;;;;;;;;;;4998739;28;20026;-57
2022/02/27 00:30:03;;;;;;;13.70;7.20;;;;;;;;;;4997211;28;20699;-59
2022/02/27 00:32:28;;;;;;;14.05;7.07;;;;;;;;;;4999047;28;20038;-58
2022/02/27 00:34:55;;;;;;;14.27;6.43;;;;;;;;;;5001265;28;20025;-57
2022/02/27 00:37:20;;;;;;;11.18;5.75;;;;;;;;;;5001502;28;20026;-57
2022/02/27 00:39:45;;;;;;;13.23;6.67;;;;;;;;;;5001997;28;20025;-59
2022/02/27 00:42:11;;;;;;;11.93;5.83;;;;;;;;;;5001600;28;20018;-61
2022/02/27 00:44:37;;;;;;;12.38;6.13;;;;;;;;;;5001050;28;20034;-59
2022/02/27 00:47:02;;;;;;;10.53;4.67;;;;;;;;;;5001613;28;20025;-59
2022/02/27 00:49:27;;;;;;;13.30;3.77;;;;;;;;;;5001944;28;20030;-59
2022/02/27 00:51:52;;;;;;;10.67;4.30;;;;;;;;;;5002314;28;20309;-58
2022/02/27 00:54:17;;;;;;;11.53;5.63;;;;;;;;;;4989618;28;20109;-57
2022/02/27 00:56:43;;;;;;;10.47;4.87;;;;;;;;;;4992947;28;20592;-61
2022/02/27 00:59:08;;;;;;;13.00;6.17;;;;;;;;;;4985297;28;20467;-57
2022/02/27 01:01:33;;;;;;;12.43;5.43;;;;;;;;;;4993685;28;20038;-58
2022/02/27 01:03:58;;;;;;;13.77;6.30;;;;;;;;;;4996391;28;20281;-56
2022/02/27 01:06:24;;;;;;;11.40;4.60;;;;;;;;;;5002202;28;20306;-60
2022/02/27 01:08:49;;;;;;;11.70;4.93;;;;;;;;;;5002329;28;20104;-59
2022/02/27 01:11:14;;;;;;;10.13;4.32;;;;;;;;;;5000490;28;20070;-58
2022/02/27 01:13:39;;;;;;;9.67;4.60;;;;;;;;;;5000277;28;20372;-58
2022/02/27 01:16:06;;;;;;;13.57;5.60;;;;;;;;;;4997037;28;20038;-60
2022/02/27 01:18:31;;;;;;;14.70;5.35;;;;;;;;;;5000207;28;20033;-58
2022/02/27 01:20:56;;;;;;;8.57;4.55;;;;;;;;;;4993445;28;20038;-57
2022/02/27 01:23:22;;;;;;;12.70;4.93;;;;;;;;;;4997255;28;20151;-57
2022/02/27 01:25:47;;;;;;;10.80;4.50;;;;;;;;;;4989210;28;20073;-59
2022/02/27 01:28:12;;;;;;;13.43;5.63;;;;;;;;;;5001606;28;20490;-59
2022/02/27 01:30:37;;;;;;;9.95;4.90;;;;;;;;;;4989719;28;20467;-58
2022/02/27 01:33:03;;;;;;;10.07;4.17;;;;;;;;;;4999840;28;20343;-59
2022/02/27 01:35:28;;;;;;;11.90;4.80;;;;;;;;;;4998676;28;20654;-60
2022/02/27 01:37:53;;;;;;;12.43;4.90;;;;;;;;;;4991770;28;20045;-59
2022/02/27 01:40:18;;;;;;;8.70;4.57;;;;;;;;;;5000223;28;20022;-58
2022/02/27 01:42:43;;;;;;;11.50;4.93;;;;;;;;;;4989761;28;20041;-57
2022/02/27 01:45:09;;;;;;;10.50;4.90;;;;;;;;;;5001774;28;20076;-60
2022/02/27 01:47:34;;;;;;;9.60;4.43;;;;;;;;;;4988295;28;20030;-59
2022/02/27 01:50:00;;;;;;;10.95;4.68;;;;;;;;;;5000489;28;20038;-59
2022/02/27 01:52:25;;;;;;;9.18;3.45;;;;;;;;;;4987685;28;20037;-59
2022/02/27 01:54:50;;;;;;;11.50;4.13;;;;;;;;;;4992669;28;20455;-59
2022/02/27 01:57:15;;;;;;;11.00;4.93;;;;;;;;;;4993516;28;20116;-59
2022/02/27 01:59:40;;;;;;;10.10;5.17;;;;;;;;;;5000459;28;20022;-57
2022/02/27 02:02:06;;;;;;;16.67;4.50;;;;;;;;;;5000618;28;20169;-61
2022/02/27 02:04:31;;;;;;;13.60;4.57;;;;;;;;;;5000163;28;20288;-59
2022/02/27 02:06:57;;;;;;;9.63;4.38;;;;;;;;;;4990048;28;20025;-60
2022/02/27 02:09:22;;;;;;;10.18;4.35;;;;;;;;;;5000042;28;20053;-60
2022/02/27 02:11:47;;;;;;;12.43;4.83;;;;;;;;;;4991007;28;20034;-58
2022/02/27 02:14:13;;;;;;;8.37;4.67;;;;;;;;;;4996201;28;20380;-57
2022/02/27 02:16:43;;;;;;;10.25;4.22;;;;;;;;;;4992037;28;20414;-61
2022/02/27 02:19:09;;;;;;;10.40;3.88;;;;;;;;;;4999514;28;20030;-61
2022/02/27 02:21:37;;;;;;;10.57;4.00;;;;;;;;;;4999777;28;20038;-59
2022/02/27 02:24:03;;;;;;;8.80;4.40;;;;;;;;;;4996474;28;20038;-60
2022/02/27 02:26:28;;;;;;;9.52;4.10;;;;;;;;;;4993340;28;20038;-59
2022/02/27 02:28:53;;;;;;;10.53;4.50;;;;;;;;;;4987514;28;20115;-59
2022/02/27 02:31:19;;;;;;;10.85;4.53;;;;;;;;;;4990204;28;20038;-59
2022/02/27 02:33:44;;;;;;;9.43;4.50;;;;;;;;;;4994713;28;20512;-59
2022/02/27 02:36:09;;;;;;;10.30;4.20;;;;;;;;;;4992315;28;20041;-61
2022/02/27 02:38:34;;;;;;;10.10;3.90;;;;;;;;;;4993063;28;20414;-59
2022/02/27 02:40:59;;;;;;;8.27;4.20;;;;;;;;;;4990591;28;20125;-57
2022/02/27 02:43:25;;;;;;;8.97;4.03;;;;;;;;;;4994675;28;20040;-56
2022/02/27 02:45:50;;;;;;;9.30;4.50;;;;;;;;;;4992125;28;20066;-57
2022/02/27 02:48:16;;;;;;;7.82;4.30;;;;;;;;;;4987663;28;20099;-56
2022/02/27 02:50:41;;;;;;;10.43;4.43;;;;;;;;;;4991465;28;20067;-55
2022/02/27 02:53:07;;;;;;;8.27;3.90;;;;;;;;;;4994427;28;20145;-56
2022/02/27 02:55:32;;;;;;;8.50;3.47;;;;;;;;;;4992032;28;20390;-57
2022/02/27 02:57:57;;;;;;;6.77;3.37;;;;;;;;;;4999837;28;20113;-57
2022/02/27 03:00:22;;;;;;;9.93;4.40;;;;;;;;;;4990970;28;20097;-54
2022/02/27 03:02:48;;;;;;;9.07;4.07;;;;;;;;;;4988114;28;20085;-56
2022/02/27 03:05:13;;;;;;;7.03;3.30;;;;;;;;;;4989913;28;20133;-57
2022/02/27 03:07:39;;;;;;;7.20;3.90;;;;;;;;;;4996043;28;20564;-55
2022/02/27 03:10:04;;;;;;;10.25;3.90;;;;;;;;;;5002302;28;20110;-55
2022/02/27 03:12:30;;;;;;;7.55;3.63;;;;;;;;;;4991446;28;20178;-55
2022/02/27 03:14:55;;;;;;;9.40;4.20;;;;;;;;;;4995723;28;20560;-57
2022/02/27 03:17:20;;;;;;;7.60;3.60;;;;;;;;;;5002055;28;20337;-58
2022/02/27 03:19:45;;;;;;;7.20;4.17;;;;;;;;;;4994006;28;20324;-57
2022/02/27 03:22:10;;;;;;;8.10;3.73;;;;;;;;;;5001168;28;20111;-57
2022/02/27 03:24:36;;;;;;;13.40;4.30;;;;;;;;;;4994446;28;20117;-61
2022/02/27 03:27:01;;;;;;;7.60;3.77;;;;;;;;;;4991313;28;20078;-57
2022/02/27 03:29:26;;;;;;;7.83;4.23;;;;;;;;;;4994824;28;20130;-57
2022/02/27 03:31:52;;;;;;;6.57;3.80;;;;;;;;;;4997972;28;20077;-58
2022/02/27 03:34:17;;;;;;;8.90;4.10;;;;;;;;;;4993948;28;20110;-55
2022/02/27 03:36:42;;;;;;;9.33;3.97;;;;;;;;;;4991006;28;20095;-57
2022/02/27 03:39:08;;;;;;;5.33;3.43;;;;;;;;;;5004467;28;20089;-58
2022/02/27 03:41:33;;;;;;;8.03;3.93;;;;;;;;;;4990790;28;20194;-58
2022/02/27 03:43:58;;;;;;;7.33;3.97;;;;;;;;;;4995474;28;20122;-57
2022/02/27 03:46:23;;;;;;;6.50;3.70;;;;;;;;;;4997843;28;20104;-58
2022/02/27 03:48:49;;;;;;;8.23;3.80;;;;;;;;;;4993112;28;20099;-58
2022/02/27 03:51:14;;;;;;;6.83;3.87;;;;;;;;;;4990845;28;20085;-58
2022/02/27 03:53:39;;;;;;;11.43;4.00;;;;;;;;;;4995795;28;20823;-57
2022/02/27 03:56:04;;;;;;;8.00;3.80;;;;;;;;;;4999395;28;20357;-58
2022/02/27 03:58:30;;;;;;;8.43;3.90;;;;;;;;;;5003591;28;20805;-59
2022/02/27 04:00:55;;;;;;;7.30;3.78;;;;;;;;;;4990517;28;20082;-57
2022/02/27 04:03:20;;;;;;;9.80;4.00;;;;;;;;;;4993227;28;20681;-57
2022/02/27 04:05:46;;;;;;;9.18;3.80;;;;;;;;;;4990066;28;20078;-60
2022/02/27 04:08:11;;;;;;;7.43;3.93;;;;;;;;;;5003545;28;20407;-56
2022/02/27 04:10:36;;;;;;;7.93;4.10;;;;;;;;;;4991167;28;20232;-55
2022/02/27 04:13:01;;;;;;;8.23;3.50;;;;;;;;;;5003100;28;20062;-58
2022/02/27 04:15:27;;;;;;;7.07;3.90;;;;;;;;;;4999847;28;20028;-58
2022/02/27 04:17:52;;;;;;;9.80;4.07;;;;;;;;;;4992150;28;20335;-59
2022/02/27 04:20:17;;;;;;;8.47;3.73;;;;;;;;;;5002624;28;20493;-58
2022/02/27 04:22:44;;;;;;;9.18;4.13;;;;;;;;;;4999159;28;20561;-58
2022/02/27 04:25:09;;;;;;;9.88;4.38;;;;;;;;;;4994129;28;20343;-57
2022/02/27 04:27:35;;;;;;;6.87;3.60;;;;;;;;;;4990461;28;20225;-60
2022/02/27 04:30:00;;;;;;;6.60;3.80;;;;;;;;;;4992463;28;20067;-59
2022/02/27 04:32:25;;;;;;;8.50;3.77;;;;;;;;;;4996752;28;20099;-58
2022/02/27 04:34:50;;;;;;;10.17;3.73;;;;;;;;;;4994283;28;20058;-57
2022/02/27 04:37:18;;;;;;;6.37;3.57;;;;;;;;;;4989599;28;20157;-60
2022/02/27 04:39:43;;;;;;;10.50;3.80;;;;;;;;;;5003488;28;20681;-60
2022/02/27 04:42:08;;;;;;;7.13;3.57;;;;;;;;;;4989616;28;20157;-58
2022/02/27 04:44:33;;;;;;;6.67;3.27;;;;;;;;;;4992931;28;20085;-60
2022/02/27 04:46:58;;;;;;;8.10;3.50;;;;;;;;;;4996752;28;20051;-56
2022/02/27 04:49:25;;;;;;;9.20;3.70;;;;;;;;;;4992830;28;20092;-59
2022/02/27 04:51:50;;;;;;;9.20;3.28;;;;;;;;;;4988224;28;20070;-57
2022/02/27 04:54:15;;;;;;;10.83;3.70;;;;;;;;;;4993444;28;20083;-58
2022/02/27 04:56:41;;;;;;;9.37;3.37;;;;;;;;;;4996328;28;20208;-58
2022/02/27 04:59:06;;;;;;;8.10;3.47;;;;;;;;;;4992883;28;20581;-60
2022/02/27 05:01:31;;;;;;;9.17;3.70;;;;;;;;;;4996012;28;20105;-57
2022/02/27 05:03:56;;;;;;;8.73;3.80;;;;;;;;;;4991991;28;20090;-58
2022/02/27 05:06:22;;;;;;;8.13;3.80;;;;;;;;;;4989280;28;20102;-61
2022/02/27 05:08:47;;;;;;;6.20;3.40;;;;;;;;;;5002455;28;20098;-60
2022/02/27 05:11:12;;;;;;;7.83;4.07;;;;;;;;;;4989540;28;20065;-59
2022/02/27 05:13:38;;;;;;;9.27;3.53;;;;;;;;;;4994429;28;20110;-58
2022/02/27 05:16:03;;;;;;;8.20;3.20;;;;;;;;;;4986563;28;20106;-61
2022/02/27 05:18:28;;;;;;;8.87;3.40;;;;;;;;;;4991313;28;20271;-58
2022/02/27 05:20:53;;;;;;;5.97;3.10;;;;;;;;;;4990549;28;20749;-58
2022/02/27 05:23:18;;;;;;;6.73;3.23;;;;;;;;;;4993027;28;20535;-60
2022/02/27 05:25:44;;;;;;;8.40;3.57;;;;;;;;;;4995759;28;20572;-56
2022/02/27 05:28:09;;;;;;;9.30;3.37;;;;;;;;;;4991105;28;20545;-58
2022/02/27 05:30:34;;;;;;;6.00;3.27;;;;;;;;;;4989244;28;20067;-55
2022/02/27 05:32:59;;;;;;;7.60;3.00;;;;;;;;;;4991211;28;20201;-56
2022/02/27 05:35:25;;;;;;;8.53;3.30;;;;;;;;;;4995556;28;20120;-57
2022/02/27 05:37:50;;;;;;;8.45;3.25;;;;;;;;;;4990920;28;20722;-57
2022/02/27 05:40:15;;;;;;;7.37;3.07;;;;;;;;;;4999732;28;20149;-57
2022/02/27 05:42:41;;;;;;;5.60;3.00;;;;;;;;;;4991141;28;20322;-56
2022/02/27 05:45:06;;;;;;;6.40;3.23;;;;;;;;;;4988179;28;20114;-60
2022/02/27 05:47:31;;;;;;;7.88;3.33;;;;;;;;;;4993503;28;20393;-57
2022/02/27 05:49:57;;;;;;;9.87;3.70;;;;;;;;;;4993902;28;20184;-58
2022/02/27 05:52:22;;;;;;;7.90;3.38;;;;;;;;;;4990268;28;20313;-62
2022/02/27 05:54:47;;;;;;;6.80;3.40;;;;;;;;;;4988684;28;20063;-59
2022/02/27 05:57:12;;;;;;;10.10;3.50;;;;;;;;;;4993624;28;20102;-59
2022/02/27 05:59:38;;;;;;;7.97;3.47;;;;;;;;;;4995721;28;20151;-59
2022/02/27 06:02:03;;;;;;;7.17;3.17;;;;;;;;;;4987908;28;20309;-61
2022/02/27 06:04:28;;;;;;;11.33;3.10;;;;;;;;;;4994945;28;20613;-60
2022/02/27 06:06:53;;;;;;;8.15;3.53;;;;;;;;;;4984302;28;20156;-58
2022/02/27 06:09:18;;;;;;;6.73;3.50;;;;;;;;;;4995964;28;20109;-57
2022/02/27 06:11:44;;;;;;;8.73;3.30;;;;;;;;;;4989096;28;20109;-61
2022/02/27 06:14:09;;;;;;;9.80;3.47;;;;;;;;;;4991131;28;20148;-60
2022/02/27 06:16:34;;;;;;;8.13;3.23;;;;;;;;;;4981452;28;20177;-57
2022/02/27 06:18:59;;;;;;;8.10;3.60;;;;;;;;;;4995398;28;20074;-58
2022/02/27 06:21:25;;;;;;;7.93;3.40;;;;;;;;;;4981605;28;20090;-58
2022/02/27 06:23:50;;;;;;;7.30;3.20;;;;;;;;;;4981796;28;20332;-60
2022/02/27 06:26:15;;;;;;;7.50;3.45;;;;;;;;;;4995188;28;20103;-57
2022/02/27 06:28:41;;;;;;;6.25;3.47;;;;;;;;;;4994621;28;20633;-60
2022/02/27 06:31:06;;;;;;;9.47;3.73;;;;;;;;;;4986870;28;20084;-60
2022/02/27 06:33:31;;;;;;;12.83;3.80;;;;;;;;;;4988228;28;20095;-57
2022/02/27 06:35:56;;;;;;;9.77;3.40;;;;;;;;;;4994789;28;20082;-57
2022/02/27 06:38:22;;;;;;;8.47;3.40;;;;;;;;;;4994356;28;20102;-57
2022/02/27 06:40:47;;;;;;;10.25;3.80;;;;;;;;;;4995459;28;20883;-57
2022/02/27 06:43:13;;;;;;;6.70;3.20;;;;;;;;;;4994229;28;20478;-58
2022/02/27 06:45:38;;;;;;;7.88;3.33;;;;;;;;;;4992023;28;20567;-58
2022/02/27 06:48:03;;;;;;;9.87;3.40;;;;;;;;;;5005338;28;20157;-58
2022/02/27 06:50:28;;;;;;;8.55;3.30;;;;;;;;;;5004934;28;20188;-57
2022/02/27 06:52:54;;;;;;;7.18;3.40;;;;;;;;;;5005055;28;20152;-58
2022/02/27 06:55:19;;;;;;;9.93;3.63;;;;;;;;;;5004887;28;20074;-61
2022/02/27 06:57:44;;;;;;;8.03;3.50;;;;;;;;;;5004762;28;20095;-59
2022/02/27 07:00:10;;;;;;;8.82;3.60;;;;;;;;;;5005067;28;20536;-58
2022/02/27 07:02:35;;;;;;;7.70;3.60;;;;;;;;;;5004912;28;20120;-60
2022/02/27 07:05:00;;;;;;;6.23;3.27;;;;;;;;;;5004439;28;20205;-61
2022/02/27 07:07:26;;;;;;;13.68;3.65;;;;;;;;;;5005040;28;20329;-62
2022/02/27 07:09:51;;;;;;;5.00;3.00;;;;;;;;;;4992072;28;20159;-60
2022/02/27 07:12:16;;;;;;;8.87;3.70;;;;;;;;;;5004371;28;20082;-60
2022/02/27 07:14:42;;;;;;;7.97;2.80;;;;;;;;;;5004739;28;20070;-59
2022/02/27 07:17:08;;;;;;;8.80;3.40;;;;;;;;;;5004290;28;20103;-57
2022/02/27 07:19:33;;;;;;;9.33;3.50;;;;;;;;;;5004708;28;20078;-61
2022/02/27 07:21:58;;;;;;;8.63;3.67;;;;;;;;;;5004414;28;20746;-59
2022/02/27 07:24:23;;;;;;;7.53;3.30;;;;;;;;;;4991363;28;20344;-58
2022/02/27 07:26:49;;;;;;;9.33;3.40;;;;;;;;;;4993682;28;20679;-59
2022/02/27 07:29:14;;;;;;;8.18;3.42;;;;;;;;;;4997896;28;20110;-58
2022/02/27 07:31:39;;;;;;;8.13;4.00;;;;;;;;;;4996217;28;20085;-59
2022/02/27 07:34:04;;;;;;;8.97;3.27;;;;;;;;;;4991153;28;20141;-61
2022/02/27 07:36:29;;;;;;;8.97;4.07;;;;;;;;;;4993342;28;20095;-58
2022/02/27 07:38:55;;;;;;;8.03;3.67;;;;;;;;;;5002348;28;20114;-62
2022/02/27 07:41:20;;;;;;;9.80;3.40;;;;;;;;;;4992922;28;20098;-57
2022/02/27 07:43:45;;;;;;;11.20;3.97;;;;;;;;;;4997982;28;20078;-57
2022/02/27 07:46:10;;;;;;;6.10;3.33;;;;;;;;;;4995493;28;20099;-57
2022/02/27 07:48:36;;;;;;;10.93;4.07;;;;;;;;;;4990488;28;20101;-60
2022/02/27 07:51:01;;;;;;;7.77;3.70;;;;;;;;;;4993777;28;20086;-59
2022/02/27 07:53:26;;;;;;;7.60;3.40;;;;;;;;;;5000771;28;20107;-60
2022/02/27 07:55:51;;;;;;;8.98;3.47;;;;;;;;;;4996218;28;20250;-58
2022/02/27 07:58:17;;;;;;;8.50;3.50;;;;;;;;;;4995365;28;20098;-57
2022/02/27 08:00:42;;;;;;;7.20;3.27;;;;;;;;;;4998714;28;20106;-60
2022/02/27 08:03:07;;;;;;;9.23;3.88;;;;;;;;;;4999464;28;20321;-61
2022/02/27 08:05:33;;;;;;;8.48;3.70;;;;;;;;;;4988999;28;20129;-58
2022/02/27 08:07:58;;;;;;;8.13;3.30;;;;;;;;;;4996272;28;20383;-59
2022/02/27 08:10:23;;;;;;;6.07;3.07;;;;;;;;;;4992914;28;20102;-59
2022/02/27 08:12:48;;;;;;;8.63;3.30;;;;;;;;;;4987154;28;20099;-57
2022/02/27 08:15:14;;;;;;;7.67;3.53;;;;;;;;;;4996194;28;20070;-58
2022/02/27 08:17:39;;;;;;;5.95;3.33;;;;;;;;;;4993484;28;20105;-59
2022/02/27 08:20:05;;;;;;;7.80;3.28;;;;;;;;;;4992635;28;20106;-59
2022/02/27 08:22:30;;;;;;;8.98;3.88;;;;;;;;;;4997839;28;20133;-58
2022/02/27 08:24:55;;;;;;;8.13;2.93;;;;;;;;;;4998454;28;20122;-59
2022/02/27 08:27:20;;;;;;;6.73;3.13;;;;;;;;;;4998289;28;20125;-60
2022/02/27 08:29:46;;;;;;;6.17;3.10;;;;;;;;;;4997864;28;20179;-58
2022/02/27 08:32:11;;;;;;;5.97;3.10;;;;;;;;;;4997833;28;20145;-60
2022/02/27 08:34:36;;;;;;;7.07;3.40;;;;;;;;;;4999036;28;20086;-59
2022/02/27 08:37:01;;;;;;;5.97;3.27;;;;;;;;;;4998149;28;20347;-57
2022/02/27 08:39:27;;;;;;;9.10;3.63;;;;;;;;;;4999092;28;20103;-60
2022/02/27 08:41:52;;;;;;;6.90;3.00;;;;;;;;;;4985267;28;20315;-59
2022/02/27 08:44:17;;;;;;;8.57;3.63;;;;;;;;;;4998574;28;20498;-59
2022/02/27 08:46:42;;;;;;;6.07;3.30;;;;;;;;;;4986449;28;20107;-57
2022/02/27 08:49:08;;;;;;;11.40;3.80;;;;;;;;;;5008798;28;20212;-61
2022/02/27 08:51:33;;;;;;;11.07;3.67;;;;;;;;;;4997398;28;20085;-58
2022/02/27 08:53:58;;;;;;;8.52;3.30;;;;;;;;;;4990401;28;20676;-56
2022/02/27 08:56:24;;;;;;;7.27;3.40;;;;;;;;;;5005560;28;20093;-58
2022/02/27 08:58:49;;;;;;;7.63;3.30;;;;;;;;;;4986104;28;20075;-60
2022/02/27 09:01:14;;;;;;;7.47;3.13;;;;;;;;;;5005958;28;20128;-59
2022/02/27 09:03:39;;;;;;;7.63;3.40;;;;;;;;;;5002778;28;20079;-58
2022/02/27 09:06:05;;;;;;;7.90;3.50;;;;;;;;;;4992912;28;20098;-58
2022/02/27 09:08:30;;;;;;;6.60;3.43;;;;;;;;;;4998135;28;20106;-58
2022/02/27 09:10:55;;;;;;;8.63;3.87;;;;;;;;;;4998642;28;20433;-60
2022/02/27 09:13:20;;;;;;;8.73;3.90;;;;;;;;;;5008291;28;20149;-57
2022/02/27 09:15:46;;;;;;;7.63;3.57;;;;;;;;;;4996303;28;20087;-60
2022/02/27 09:18:11;;;;;;;8.68;4.10;;;;;;;;;;5012694;28;20113;-59
2022/02/27 09:20:36;;;;;;;8.63;3.63;;;;;;;;;;4985143;28;20106;-59
2022/02/27 09:23:01;;;;;;;8.93;4.13;;;;;;;;;;5005557;28;20121;-58
2022/02/27 09:25:26;;;;;;;8.70;4.07;;;;;;;;;;4990377;28;20445;-58
2022/02/27 09:27:52;;;;;;;10.33;3.80;;;;;;;;;;5006146;28;20071;-60
2022/02/27 09:30:17;;;;;;;9.37;4.20;;;;;;;;;;5002582;28;20201;-60
2022/02/27 09:32:42;;;;;;;11.03;4.43;;;;;;;;;;4993829;28;20132;-60
2022/02/27 09:35:08;;;;;;;11.20;6.20;;;;;;;;;;5003314;28;20066;-66
2022/02/27 09:37:33;;;;;;;16.15;7.60;;;;;;;;;;4990838;28;20230;-61
2022/02/27 09:39:59;;;;;;;30.38;13.07;;;;;;;;;;5007210;28;20101;-61
2022/02/27 09:42:28;;;;;;;20.27;7.78;;;;;;;;;;4996965;28;20136;-58
2022/02/27 09:44:53;;;;;;;30.83;13.10;;;;;;;;;;4998010;28;20114;-58
2022/02/27 09:47:18;;;;;;;19.03;7.37;;;;;;;;;;4997965;28;20088;-58
2022/02/27 09:49:46;;;;;;;12.83;6.03;;;;;;;;;;5004763;28;20111;-60
2022/02/27 09:52:11;;;;;;;11.73;5.15;;;;;;;;;;4976787;28;20074;-58
2022/02/27 09:54:36;;;;;;;9.70;5.00;;;;;;;;;;4995895;28;20093;-59
2022/02/27 09:57:02;;;;;;;12.27;4.83;;;;;;;;;;5001067;28;20104;-59
2022/02/27 09:59:27;;;;;;;12.43;5.35;;;;;;;;;;4999082;28;20082;-60
2022/02/27 10:01:56;;;;;;;11.93;5.07;;;;;;;;;;4990904;28;20113;-58
2022/02/27 10:04:21;;;;;;;9.13;4.38;;;;;;;;;;4997157;28;20797;-58
2022/02/27 10:06:47;;;;;;;11.03;4.93;;;;;;;;;;4986833;28;20185;-59
2022/02/27 10:09:19;;;;;;;14.88;6.18;;;;;;;;;;5002624;28;20821;-59
2022/02/27 10:11:45;;;;;;;10.52;4.95;;;;;;;;;;5001976;28;20077;-59
2022/02/27 10:14:10;;;;;;;11.90;5.67;;;;;;;;;;4994027;28;20101;-62
2022/02/27 10:16:35;;;;;;;14.80;5.67;;;;;;;;;;4997617;28;20524;-60
2022/02/27 10:19:00;;;;;;;13.77;5.40;;;;;;;;;;4996547;28;20071;-60
2022/02/27 10:21:34;;;;;;;10.03;3.57;;;;;;;;;;4995449;28;20094;-61
2022/02/27 10:24:00;;;;;;;14.23;5.50;;;;;;;;;;4992675;28;20102;-59
2022/02/27 10:26:28;;;;;;;13.68;5.57;;;;;;;;;;4993422;28;20499;-57
2022/02/27 10:29:02;;;;;;;15.57;6.47;;;;;;;;;;4992307;28;20121;-60
2022/02/27 10:31:27;;;;;;;10.30;5.00;;;;;;;;;;4991469;28;20595;-60
2022/02/27 10:33:56;;;;;;;15.68;7.70;;;;;;;;;;4995515;28;20190;-59
2022/02/27 10:36:21;;;;;;;13.05;4.97;;;;;;;;;;4994122;28;20441;-60
2022/02/27 10:41:12;;;;;;;9.27;3.73;;;;;;;;;;4992764;28;20090;-60
2022/02/27 10:43:44;;;;;;;14.05;7.07;;;;;;;;;;4994430;28;20090;-59
2022/02/27 10:46:10;;;;;;;13.25;6.90;;;;;;;;;;4992608;28;20114;-58
2022/02/27 10:48:35;;;;;;;15.65;7.72;;;;;;;;;;4990122;28;20245;-59
2022/02/27 10:51:13;;;;;;;13.47;7.20;;;;;;;;;;4991608;28;20149;-58
2022/02/27 10:53:39;;;;;;;17.27;7.30;;;;;;;;;;4990549;28;20109;-59
2022/02/27 10:56:08;;;;;;;9.77;4.47;;;;;;;;;;4994423;28;20071;-58
2022/02/27 10:58:38;;;;;;;12.00;5.97;;;;;;;;;;4997068;28;20575;-58
2022/02/27 11:01:08;;;;;;;13.15;6.40;;;;;;;;;;4995686;28;20539;-58
2022/02/27 11:03:35;;;;;;;13.63;6.65;;;;;;;;;;4984716;28;20093;-59
2022/02/27 11:06:01;;;;;;;13.50;6.00;;;;;;;;;;4996846;28;20529;-58
2022/02/27 11:08:26;;;;;;;12.63;5.97;;;;;;;;;;4996700;28;20369;-59
2022/02/27 11:10:51;;;;;;;13.67;6.53;;;;;;;;;;4985818;28;20181;-58
2022/02/27 11:13:16;;;;;;;18.05;8.50;;;;;;;;;;5003037;28;20115;-58
2022/02/27 11:15:42;;;;;;;8.37;4.43;;;;;;;;;;4996185;28;20178;-59
2022/02/27 11:18:07;;;;;;;10.83;6.00;;;;;;;;;;4987417;28;20157;-59
2022/02/27 11:20:32;;;;;;;10.25;4.63;;;;;;;;;;4996129;28;20316;-61
2022/02/27 11:22:57;;;;;;;11.03;5.33;;;;;;;;;;4996874;28;20106;-60
2022/02/27 11:25:26;;;;;;;8.63;3.37;;;;;;;;;;4983187;28;20384;-61
2022/02/27 11:27:52;;;;;;;14.80;6.75;;;;;;;;;;4985723;28;20075;-60
2022/02/27 11:30:28;;;;;;;10.40;5.03;;;;;;;;;;4994509;28;20375;-60
2022/02/27 11:32:54;;;;;;;9.65;3.83;;;;;;;;;;4999553;28;20110;-60
2022/02/27 11:35:32;;;;;;;11.38;5.38;;;;;;;;;;5000076;28;20086;-60
2022/02/27 11:37:57;;;;;;;10.00;5.50;;;;;;;;;;4989954;28;20510;-59
2022/02/27 11:40:31;;;;;;;13.77;6.73;;;;;;;;;;4999391;28;20082;-58
2022/02/27 11:42:57;;;;;;;9.93;4.95;;;;;;;;;;5004607;28;20101;-59
2022/02/27 11:45:31;;;;;;;11.73;6.57;;;;;;;;;;5003346;28;20564;-59
2022/02/27 11:47:57;;;;;;;11.35;6.32;;;;;;;;;;4991968;28;20118;-60
2022/02/27 11:50:24;;;;;;;10.20;4.78;;;;;;;;;;4995102;28;20109;-61
2022/02/27 11:52:49;;;;;;;8.15;4.20;;;;;;;;;;5011556;28;20467;-59
2022/02/27 11:55:15;;;;;;;11.80;5.57;;;;;;;;;;4999464;28;20094;-58
2022/02/27 11:57:41;;;;;;;12.10;6.85;;;;;;;;;;5005520;28;20249;-60
2022/02/27 12:00:13;;;;;;;10.20;5.00;;;;;;;;;;5006333;28;20634;-60
2022/02/27 12:02:40;;;;;;;11.50;5.00;;;;;;;;;;5002930;28;20106;-61
2022/02/27 12:05:06;;;;;;;9.18;4.70;;;;;;;;;;5004027;28;20109;-60
2022/02/27 12:07:51;;;;;;;12.65;6.80;;;;;;;;;;5002512;28;20095;-60
2022/02/27 12:10:32;;;;;;;15.38;9.20;;;;;;;;;;4989866;28;20105;-60
2022/02/27 12:12:57;;;;;;;8.75;4.95;;;;;;;;;;4999187;28;20093;-58
2022/02/27 12:15:35;;;;;;;9.77;5.40;;;;;;;;;;5009998;28;20503;-58
2022/02/27 12:18:05;;;;;;;12.13;6.28;;;;;;;;;;4993930;28;20347;-61
2022/02/27 12:20:36;;;;;;;12.18;6.78;;;;;;;;;;5005156;28;20146;-61
2022/02/27 12:23:01;;;;;;;10.32;5.57;;;;;;;;;;4989901;28;20106;-58
2022/02/27 12:25:33;;;;;;;13.03;6.53;;;;;;;;;;4991128;28;20622;-58
2022/02/27 12:27:58;;;;;;;17.60;10.18;;;;;;;;;;4986147;28;20107;-59
2022/02/27 12:30:23;;;;;;;10.83;6.20;;;;;;;;;;4986910;28;20741;-59
2022/02/27 12:32:49;;;;;;;17.10;10.67;;;;;;;;;;4992661;28;20105;-61
2022/02/27 12:35:14;;;;;;;17.90;12.00;;;;;;;;;;4991387;28;20527;-59
2022/02/27 12:37:39;;;;;;;11.13;6.53;;;;;;;;;;4988705;28;20094;-60
2022/02/27 12:40:04;;;;;;;22.67;13.17;;;;;;;;;;4999613;28;20099;-59
2022/02/27 12:42:32;;;;;;;15.25;8.98;;;;;;;;;;4992264;28;20185;-59
2022/02/27 12:44:57;;;;;;;13.60;8.13;;;;;;;;;;4987487;28;20450;-61
2022/02/27 12:47:22;;;;;;;15.53;10.47;;;;;;;;;;4992647;28;20107;-58
2022/02/27 12:52:39;;;;;;;16.13;10.20;;;;;;;;;;4978866;28;20094;-59
2022/02/27 12:55:10;;;;;;;15.30;10.02;;;;;;;;;;4992493;28;20314;-59
2022/02/27 12:57:39;;;;;;;15.27;9.80;;;;;;;;;;4984738;28;20569;-58
2022/02/27 13:00:05;;;;;;;12.65;7.68;;;;;;;;;;4992590;28;20091;-57
2022/02/27 13:02:30;;;;;;;9.18;5.82;;;;;;;;;;4995036;28;20180;-58
2022/02/27 13:04:56;;;;;;;13.53;8.00;;;;;;;;;;4988936;28;20043;-59
2022/02/27 13:07:21;;;;;;;10.02;6.13;;;;;;;;;;4992219;28;20581;-61
2022/02/27 13:09:47;;;;;;;12.17;7.20;;;;;;;;;;4997679;28;20254;-60
2022/02/27 13:12:16;;;;;;;11.73;6.13;;;;;;;;;;4992985;28;20053;-61
2022/02/27 13:14:45;;;;;;;10.25;6.28;;;;;;;;;;4990343;28;20113;-62
2022/02/27 13:17:21;;;;;;;11.30;7.18;;;;;;;;;;4993589;28;20053;-60
2022/02/27 13:19:46;;;;;;;9.98;7.18;;;;;;;;;;4991368;28;20033;-60
2022/02/27 13:22:12;;;;;;;9.68;5.90;;;;;;;;;;4990020;28;20042;-61
2022/02/27 13:24:41;;;;;;;11.20;6.40;;;;;;;;;;4998156;28;20503;-59
2022/02/27 13:27:09;;;;;;;10.43;5.20;;;;;;;;;;4992923;28;20491;-59
2022/02/27 13:29:48;;;;;;;10.52;6.57;;;;;;;;;;4994919;28;20542;-62
2022/02/27 13:32:23;;;;;;;12.25;8.18;;;;;;;;;;4990112;28;20237;-58
2022/02/27 13:34:50;;;;;;;10.60;6.38;;;;;;;;;;4991262;28;20021;-61
2022/02/27 13:37:20;;;;;;;8.70;5.40;;;;;;;;;;4987717;28;20470;-59
2022/02/27 13:39:45;;;;;;;8.93;6.15;;;;;;;;;;4995438;28;20550;-59
2022/02/27 13:42:12;;;;;;;10.77;6.57;;;;;;;;;;4992821;28;20171;-57
2022/02/27 13:44:43;;;;;;;10.00;6.07;;;;;;;;;;4986639;28;20640;-60
2022/02/27 13:47:08;;;;;;;8.55;5.38;;;;;;;;;;4992063;28;20440;-61
2022/02/27 13:49:34;;;;;;;5.27;3.60;;;;;;;;;;4993556;28;20041;-58
2022/02/27 13:52:02;;;;;;;8.27;5.87;;;;;;;;;;4989296;28;20096;-59
2022/02/27 13:54:29;;;;;;;8.10;4.95;;;;;;;;;;5007214;28;20049;-59
2022/02/27 13:57:04;;;;;;;6.30;4.00;;;;;;;;;;4992939;28;20054;-57
2022/02/27 13:59:59;;;;;;;7.82;4.50;;;;;;;;;;4985784;28;20036;-58
2022/02/27 14:02:32;;;;;;;8.82;5.82;;;;;;;;;;4972224;28;20607;-58
2022/02/27 14:05:14;;;;;;;8.45;5.25;;;;;;;;;;4972035;28;20351;-59
2022/02/27 14:07:43;;;;;;;8.63;5.00;;;;;;;;;;4975392;28;20133;-60
2022/02/27 14:10:09;;;;;;;6.70;4.53;;;;;;;;;;4984796;28;20242;-59
2022/02/27 14:12:34;;;;;;;9.53;6.03;;;;;;;;;;4967349;28;20038;-61
2022/02/27 14:14:59;;;;;;;6.77;4.13;;;;;;;;;;4977079;28;20128;-58
2022/02/27 14:17:24;;;;;;;8.07;5.73;;;;;;;;;;4964765;28;20049;-59
2022/02/27 14:19:50;;;;;;;;;;;;;;;;;;4993847;28;20411;-60
2022/02/27 14:22:15;;;;;;;9.43;5.18;;;;;;;;;;4998242;28;19925;-59
2022/02/27 14:24:49;;;;;;;6.70;5.25;;;;;;;;;;4989738;28;20144;-59
2022/02/27 14:27:15;;;;;;;9.88;5.28;;;;;;;;;;5000623;28;20037;-60
2022/02/27 14:29:40;;;;;;;6.28;4.50;;;;;;;;;;4990207;28;20034;-58
2022/02/27 14:32:05;;;;;;;;;;;;;;;;;;4995624;28;20307;-61
2022/02/27 14:34:30;;;;;;;7.25;5.80;;;;;;;;;;4997591;28;19983;-61
2022/02/27 14:36:56;;;;;;;;;;;;;;;;;;4985483;28;20132;-60